TimeCST,TemperatureF,Dew PointF,Humidity,Sea Level PressureIn,VisibilityMPH,Wind Direction,Wind SpeedMPH,Gust SpeedMPH,PrecipitationIn,Events,Conditions,WindDirDegrees,DateUTC
12:35 AM,35.8,34.3,94,29.89,10.0,Calm,Calm,-,N/A,,Overcast,0,2013-02-07 06:35:00
12:55 AM,36.3,34.9,95,29.89,10.0,WNW,3.5,-,N/A,,Overcast,290,2013-02-07 06:55:00
1:15 AM,37.4,35.1,91,29.90,10.0,Calm,Calm,-,N/A,,Overcast,0,2013-02-07 07:15:00
1:35 AM,41.0,36.7,85,29.91,10.0,NNW,5.8,-,N/A,,Overcast,330,2013-02-07 07:35:00
1:55 AM,39.7,36.9,89,29.92,10.0,NNW,9.2,-,N/A,,Overcast,330,2013-02-07 07:55:00
2:15 AM,40.5,36.1,85,29.92,10.0,NNW,5.8,-,N/A,,Overcast,330,2013-02-07 08:15:00
2:35 AM,39.2,34.7,84,29.92,10.0,NNW,9.2,-,N/A,,Overcast,330,2013-02-07 08:35:00
2:55 AM,38.3,33.8,84,29.92,10.0,NW,5.8,-,N/A,,Scattered Clouds,320,2013-02-07 08:55:00
3:15 AM,38.3,32.9,81,29.92,10.0,NNW,9.2,-,N/A,,Mostly Cloudy,340,2013-02-07 09:15:00
3:35 AM,37.8,32.9,83,29.92,10.0,NNW,9.2,-,N/A,,Overcast,340,2013-02-07 09:35:00
3:55 AM,36.7,32.2,84,29.92,10.0,NNW,12.7,-,N/A,,Mostly Cloudy,330,2013-02-07 09:55:00
4:15 AM,36.0,32.0,86,29.93,10.0,NNW,9.2,16.1,N/A,,Scattered Clouds,330,2013-02-07 10:15:00
4:35 AM,34.9,31.8,89,29.93,10.0,NNW,11.5,-,N/A,,Scattered Clouds,330,2013-02-07 10:35:00
4:55 AM,34.9,32.0,89,29.94,10.0,NNW,8.1,-,N/A,,Clear,340,2013-02-07 10:55:00
5:15 AM,34.3,31.8,90,29.95,10.0,NNW,10.4,-,N/A,,Clear,330,2013-02-07 11:15:00
5:35 AM,34.2,31.5,90,29.96,10.0,NNW,9.2,-,N/A,,Clear,330,2013-02-07 11:35:00
5:55 AM,33.8,31.5,91,29.98,10.0,NNW,6.9,-,N/A,,Clear,340,2013-02-07 11:55:00
6:15 AM,33.8,31.1,90,29.99,10.0,NNW,10.4,-,N/A,,Clear,340,2013-02-07 12:15:00
6:35 AM,32.9,31.1,93,29.99,10.0,NNW,10.4,-,N/A,,Clear,340,2013-02-07 12:35:00
6:55 AM,32.4,31.1,95,30.00,10.0,NNW,11.5,17.3,N/A,,Clear,330,2013-02-07 12:55:00
7:15 AM,32.9,31.6,95,30.00,10.0,NNW,9.2,16.1,N/A,,Scattered Clouds,340,2013-02-07 13:15:00
7:35 AM,32.9,31.8,96,30.01,10.0,NNW,8.1,-,N/A,,Mostly Cloudy,340,2013-02-07 13:35:00
7:55 AM,33.3,32.0,95,30.02,10.0,NNW,8.1,-,N/A,,Overcast,340,2013-02-07 13:55:00
8:15 AM,33.3,32.0,95,30.04,10.0,NNW,8.1,-,N/A,,Overcast,340,2013-02-07 14:15:00
8:35 AM,33.3,32.0,95,30.04,10.0,NNW,8.1,-,N/A,,Overcast,340,2013-02-07 14:35:00
8:55 AM,33.1,32.0,96,30.06,7.0,NNW,12.7,-,N/A,,Overcast,330,2013-02-07 14:55:00
9:15 AM,32.5,32.0,98,30.07,5.0,NNW,13.8,19.6,N/A,,Overcast,340,2013-02-07 15:15:00
9:35 AM,32.0,31.8,99,30.08,3.0,NNW,12.7,19.6,N/A,,Overcast,340,2013-02-07 15:35:00
9:55 AM,32.4,31.1,95,30.09,5.0,NNW,15.0,19.6,N/A,,Overcast,340,2013-02-07 15:55:00
10:15 AM,32.0,31.1,96,30.09,5.0,NNW,11.5,19.6,N/A,,Overcast,340,2013-02-07 16:15:00
10:35 AM,32.0,31.1,96,30.10,4.0,NNW,12.7,18.4,N/A,,Overcast,340,2013-02-07 16:35:00
10:55 AM,31.8,30.4,94,30.11,4.0,NNW,12.7,23.0,N/A,,Overcast,340,2013-02-07 16:55:00
11:15 AM,32.0,30.2,93,30.11,4.0,NNW,11.5,19.6,N/A,,Overcast,340,2013-02-07 17:15:00
11:35 AM,32.0,30.0,92,30.11,4.0,North,13.8,24.2,N/A,,Overcast,350,2013-02-07 17:35:00
11:55 AM,32.0,30.0,92,30.11,3.0,NNW,16.1,20.7,N/A,,Overcast,330,2013-02-07 17:55:00
12:15 PM,32.0,30.2,93,30.11,2.5,NNW,17.3,23.0,N/A,,Overcast,330,2013-02-07 18:15:00
12:35 PM,32.0,30.0,92,30.11,3.0,NNW,12.7,23.0,N/A,,Overcast,340,2013-02-07 18:35:00
12:55 PM,32.0,29.5,90,30.11,4.0,NNW,13.8,21.9,N/A,,Overcast,330,2013-02-07 18:55:00
1:15 PM,32.0,29.3,90,30.11,4.0,NNW,13.8,23.0,N/A,,Overcast,330,2013-02-07 19:15:00
1:35 PM,32.0,29.3,90,30.11,4.0,NNW,15.0,21.9,N/A,,Overcast,340,2013-02-07 19:35:00
1:55 PM,32.4,29.5,89,30.11,5.0,NW,17.3,23.0,N/A,,Overcast,320,2013-02-07 19:55:00
2:15 PM,32.5,29.5,88,30.11,5.0,NNW,11.5,20.7,N/A,,Overcast,330,2013-02-07 20:15:00
2:35 PM,32.4,29.1,88,30.11,10.0,NNW,16.1,23.0,N/A,,Overcast,330,2013-02-07 20:35:00
2:55 PM,32.2,29.1,88,30.11,10.0,NNW,13.8,18.4,N/A,,Overcast,330,2013-02-07 20:55:00
3:15 PM,32.0,28.4,87,30.12,10.0,North,12.7,17.3,N/A,,Overcast,350,2013-02-07 21:15:00
3:35 PM,32.2,28.6,87,30.13,10.0,NNW,15.0,18.4,N/A,,Overcast,330,2013-02-07 21:35:00
3:55 PM,32.0,28.4,87,30.13,10.0,NNW,17.3,23.0,N/A,,Overcast,330,2013-02-07 21:55:00
4:15 PM,32.2,27.9,84,30.13,10.0,NNW,15.0,23.0,N/A,,Overcast,330,2013-02-07 22:15:00
4:35 PM,32.4,27.9,83,30.14,10.0,NNW,11.5,-,N/A,,Overcast,340,2013-02-07 22:35:00
4:55 PM,32.2,27.5,83,30.14,10.0,NNW,15.0,-,N/A,,Overcast,330,2013-02-07 22:55:00
5:15 PM,32.0,27.5,83,30.16,10.0,NNW,9.2,-,N/A,,Overcast,340,2013-02-07 23:15:00
5:35 PM,32.0,27.3,83,30.16,10.0,NNW,12.7,20.7,N/A,,Overcast,340,2013-02-07 23:35:00
5:55 PM,31.6,27.0,83,30.17,10.0,North,8.1,-,N/A,,Overcast,350,2013-02-07 23:55:00
6:15 PM,31.5,26.6,82,30.18,10.0,NNW,9.2,17.3,N/A,,Overcast,340,2013-02-08 00:15:00
6:35 PM,31.6,26.6,82,30.18,10.0,North,12.7,18.4,N/A,,Overcast,350,2013-02-08 00:35:00
6:55 PM,31.1,26.4,83,30.19,10.0,North,10.4,17.3,N/A,,Overcast,350,2013-02-08 00:55:00
7:15 PM,31.1,26.4,83,30.19,10.0,NNW,10.4,16.1,N/A,,Overcast,340,2013-02-08 01:15:00
7:35 PM,31.1,26.4,83,30.20,10.0,North,11.5,18.4,N/A,,Overcast,350,2013-02-08 01:35:00
7:55 PM,31.1,26.6,83,30.21,10.0,North,9.2,17.3,N/A,,Overcast,350,2013-02-08 01:55:00
8:15 PM,30.9,26.4,83,30.21,10.0,North,9.2,16.1,N/A,,Overcast,360,2013-02-08 02:15:00
8:35 PM,30.9,26.4,83,30.22,10.0,North,5.8,-,N/A,,Overcast,350,2013-02-08 02:35:00
8:55 PM,31.1,26.4,83,30.22,10.0,North,6.9,-,N/A,,Overcast,10,2013-02-08 02:55:00
9:15 PM,31.1,26.2,82,30.23,10.0,North,9.2,-,N/A,,Overcast,360,2013-02-08 03:15:00
9:35 PM,31.1,26.4,83,30.23,7.0,North,6.9,-,N/A,,Overcast,350,2013-02-08 03:35:00
9:55 PM,31.1,26.6,83,30.24,7.0,North,3.5,-,N/A,,Overcast,350,2013-02-08 03:55:00
10:15 PM,31.1,26.6,83,30.23,7.0,North,5.8,-,N/A,,Overcast,10,2013-02-08 04:15:00
10:35 PM,30.7,26.1,83,30.24,7.0,North,6.9,-,N/A,,Overcast,10,2013-02-08 04:35:00
10:55 PM,30.6,25.7,82,30.25,7.0,NNE,5.8,-,N/A,,Overcast,20,2013-02-08 04:55:00
11:15 PM,30.2,25.5,83,30.24,7.0,NNE,8.1,-,N/A,,Overcast,30,2013-02-08 05:15:00
11:35 PM,30.0,25.2,82,30.25,7.0,NE,5.8,-,N/A,,Overcast,40,2013-02-08 05:35:00
11:55 PM,29.7,24.8,82,30.25,10.0,NNE,5.8,-,N/A,,Overcast,30,2013-02-08 05:55:00